Time;durP1;ratioP1;P1;durP2;ratioP2;P2;SDS_P1;SDS_P2;PMS_P1;PMS_P2;Temp;Humidity;BMP_temperature;BMP_pressure;BME280_temperature;BME280_humidity;BME280_pressure;Samples;Min_cycle;Max_cycle;Signal;HPM_P1;HPM_P2
2022/05/17 00:00:43;;;;;;;;;;;16.00;66.10;;;;;;5110298;28;20369;-74
2022/05/17 00:03:08;;;;;;;;;;;16.00;66.00;;;;;;5090701;28;19912;-76
2022/05/17 00:05:34;;;;;;;;;;;16.10;66.00;;;;;;5090414;28;19911;-76
2022/05/17 00:08:00;;;;;;;;;;;16.10;66.00;;;;;;5108340;28;20018;-73
2022/05/17 00:10:25;;;;;;;;;;;16.10;66.00;;;;;;5091137;28;19920;-74
2022/05/17 00:12:51;;;;;;;;;;;16.10;66.10;;;;;;5108584;28;20388;-76
2022/05/17 00:15:18;;;;;;;;;;;16.10;66.20;;;;;;5108628;28;19960;-76
2022/05/17 00:17:44;;;;;;;;;;;16.10;66.00;;;;;;5108379;28;19908;-73
2022/05/17 00:20:10;;;;;;;;;;;16.10;66.00;;;;;;5108284;28;19965;-74
2022/05/17 00:22:35;;;;;;;;;;;16.10;65.80;;;;;;5108365;28;20346;-75
2022/05/17 00:25:01;;;;;;;;;;;16.00;65.80;;;;;;5108963;28;19915;-73
2022/05/17 00:27:27;;;;;;;;;;;16.00;65.90;;;;;;5108209;28;19934;-75
2022/05/17 00:29:52;;;;;;;;;;;16.10;66.00;;;;;;5108448;28;20397;-75
2022/05/17 00:32:19;;;;;;;;;;;16.10;66.10;;;;;;5108198;28;19915;-73
2022/05/17 00:34:46;;;;;;;;;;;16.00;66.00;;;;;;5108539;28;19916;-77
2022/05/17 00:37:15;;;;;;;;;;;16.00;65.90;;;;;;5111300;28;19946;-75
2022/05/17 00:39:41;;;;;;;;;;;16.00;65.90;;;;;;5112199;28;19907;-76
2022/05/17 00:42:06;;;;;;;;;;;16.00;66.00;;;;;;5093865;28;19914;-74
2022/05/17 00:44:44;;;;;;;;;;;16.00;66.10;;;;;;5094021;28;19912;-76
2022/05/17 00:47:10;;;;;;;;;;;15.90;66.00;;;;;;5111624;28;19977;-73
2022/05/17 00:49:37;;;;;;;;;;;15.90;66.10;;;;;;5111914;28;20325;-76
2022/05/17 00:52:06;;;;;;;;;;;15.90;66.00;;;;;;5093585;28;19916;-75
2022/05/17 00:54:33;;;;;;;;;;;15.80;66.00;;;;;;5111977;28;19908;-75
2022/05/17 00:57:01;;;;;;;;;;;15.70;65.90;;;;;;5076521;28;20032;-76
2022/05/17 00:59:27;;;;;;;;;;;15.60;66.00;;;;;;5093386;28;19969;-77
2022/05/17 01:01:53;;;;;;;;;;;15.60;65.90;;;;;;5111847;28;19912;-76
2022/05/17 01:04:20;;;;;;;;;;;15.50;65.90;;;;;;5111842;28;19915;-76
2022/05/17 01:06:48;;;;;;;;;;;15.40;65.90;;;;;;5111872;28;19965;-74
2022/05/17 01:09:14;;;;;;;;;;;15.40;66.00;;;;;;5112207;28;19926;-74
2022/05/17 01:11:40;;;;;;;;;;;15.30;66.00;;;;;;5093316;28;19912;-77
2022/05/17 01:16:51;;;;;;;;;;;15.10;66.30;;;;;;5112911;28;19922;-75
2022/05/17 01:19:17;;;;;;;;;;;15.10;66.60;;;;;;5111653;28;19911;-75
2022/05/17 01:21:43;;;;;;;;;;;15.00;66.60;;;;;;5111629;28;19907;-73
2022/05/17 01:24:08;;;;;;;;;;;15.00;66.50;;;;;;5111314;28;20286;-75
2022/05/17 01:26:35;;;;;;;;;;;14.90;66.50;;;;;;5093010;28;20384;-76
2022/05/17 01:29:01;;;;;;;;;;;14.90;66.50;;;;;;5092816;28;19911;-76
2022/05/17 01:31:28;;;;;;;;;;;14.90;66.50;;;;;;5092663;28;19952;-74
2022/05/17 01:33:53;;;;;;;;;;;14.90;66.40;;;;;;5092581;28;19923;-74
2022/05/17 01:36:22;;;;;;;;;;;14.90;66.40;;;;;;5112261;28;19908;-74
2022/05/17 01:38:51;;;;;;;;;;;14.80;66.40;;;;;;5110942;28;20322;-73
2022/05/17 01:41:19;;;;;;;;;;;14.80;66.60;;;;;;5110908;28;19908;-73
2022/05/17 01:43:45;;;;;;;;;;;14.90;66.50;;;;;;5092518;28;20254;-75
2022/05/17 01:46:11;;;;;;;;;;;14.90;66.50;;;;;;5092253;28;19918;-74
2022/05/17 01:48:37;;;;;;;;;;;14.90;66.60;;;;;;5110961;28;20361;-75
2022/05/17 01:51:03;;;;;;;;;;;14.90;66.50;;;;;;5092708;28;19918;-76
2022/05/17 01:53:29;;;;;;;;;;;14.90;66.60;;;;;;5092514;28;19916;-76
2022/05/17 01:55:54;;;;;;;;;;;15.00;66.60;;;;;;5092385;28;20253;-73
2022/05/17 01:58:21;;;;;;;;;;;15.00;66.50;;;;;;5092399;28;19911;-76
2022/05/17 02:00:46;;;;;;;;;;;15.00;66.40;;;;;;5110730;28;20354;-76
2022/05/17 02:03:12;;;;;;;;;;;15.10;66.40;;;;;;5092275;28;19915;-74
2022/05/17 02:05:37;;;;;;;;;;;15.10;66.30;;;;;;5110722;28;20014;-74
2022/05/17 02:08:03;;;;;;;;;;;15.10;66.40;;;;;;5110825;28;20491;-76
2022/05/17 02:10:28;;;;;;;;;;;15.00;66.30;;;;;;5092402;28;19915;-73
2022/05/17 02:12:55;;;;;;;;;;;15.00;66.40;;;;;;5110483;28;19912;-73
2022/05/17 02:15:21;;;;;;;;;;;15.00;66.40;;;;;;5110604;28;19939;-75
2022/05/17 02:17:47;;;;;;;;;;;15.00;66.50;;;;;;5110278;28;19948;-74
2022/05/17 02:20:12;;;;;;;;;;;15.00;66.40;;;;;;5110233;28;19947;-73
2022/05/17 02:22:38;;;;;;;;;;;15.00;66.40;;;;;;5110271;28;19919;-76
2022/05/17 02:25:04;;;;;;;;;;;15.00;66.60;;;;;;5110185;28;19912;-74
2022/05/17 02:27:29;;;;;;;;;;;15.00;66.60;;;;;;5075812;28;19916;-76
2022/05/17 02:29:55;;;;;;;;;;;15.00;66.50;;;;;;5111099;28;19908;-76
2022/05/17 02:32:21;;;;;;;;;;;15.00;66.80;;;;;;5110672;28;19918;-74
2022/05/17 02:34:47;;;;;;;;;;;14.90;66.90;;;;;;5075237;28;20006;-76
2022/05/17 02:37:15;;;;;;;;;;;14.90;66.80;;;;;;5092555;28;19911;-75
2022/05/17 02:39:41;;;;;;;;;;;14.90;67.00;;;;;;5075805;28;20423;-75
2022/05/17 02:42:08;;;;;;;;;;;14.90;66.90;;;;;;5109617;28;19912;-74
2022/05/17 02:44:34;;;;;;;;;;;14.90;66.90;;;;;;5110324;28;19916;-74
2022/05/17 02:46:59;;;;;;;;;;;15.00;67.00;;;;;;5110843;28;20003;-75
2022/05/17 02:49:25;;;;;;;;;;;15.00;66.90;;;;;;5109594;28;20242;-76
2022/05/17 02:51:51;;;;;;;;;;;15.10;67.00;;;;;;5110156;28;20007;-77
2022/05/17 02:54:18;;;;;;;;;;;15.20;66.90;;;;;;5109402;28;20450;-76
2022/05/17 02:56:44;;;;;;;;;;;15.30;66.90;;;;;;5109835;28;19912;-75
2022/05/17 02:59:12;;;;;;;;;;;15.40;67.10;;;;;;5090902;28;20377;-76
2022/05/17 03:01:37;;;;;;;;;;;15.40;67.00;;;;;;5110477;28;19948;-74
2022/05/17 03:04:03;;;;;;;;;;;15.50;67.20;;;;;;5110120;28;19916;-74
2022/05/17 03:06:29;;;;;;;;;;;15.50;67.30;;;;;;5091417;28;20396;-76
2022/05/17 03:08:54;;;;;;;;;;;15.60;67.30;;;;;;5110646;28;20389;-75
2022/05/17 03:11:20;;;;;;;;;;;15.70;67.30;;;;;;5111134;28;19919;-73
2022/05/17 03:13:45;;;;;;;;;;;15.80;67.50;;;;;;5110066;28;20423;-73
2022/05/17 03:16:11;;;;;;;;;;;15.80;67.60;;;;;;5110658;28;19908;-74
2022/05/17 03:18:39;;;;;;;;;;;15.80;67.60;;;;;;5111192;28;19912;-77
2022/05/17 03:21:05;;;;;;;;;;;15.80;67.80;;;;;;5109631;28;19907;-73
2022/05/17 03:23:30;;;;;;;;;;;15.90;67.90;;;;;;5110876;28;19912;-74
2022/05/17 03:25:56;;;;;;;;;;;15.90;68.20;;;;;;5110768;28;19933;-75
2022/05/17 03:28:21;;;;;;;;;;;15.90;68.40;;;;;;5110633;28;19915;-73
2022/05/17 03:30:47;;;;;;;;;;;15.90;68.80;;;;;;5110265;28;19918;-73
2022/05/17 03:33:13;;;;;;;;;;;15.90;68.60;;;;;;5110148;28;19916;-76
2022/05/17 03:35:38;;;;;;;;;;;15.90;68.90;;;;;;5091066;28;20378;-75
2022/05/17 03:38:04;;;;;;;;;;;15.90;69.00;;;;;;5092304;28;20006;-74
2022/05/17 03:40:29;;;;;;;;;;;16.00;69.20;;;;;;5090876;28;20340;-76
2022/05/17 03:42:55;;;;;;;;;;;16.00;69.20;;;;;;5109171;28;19923;-76
2022/05/17 03:45:20;;;;;;;;;;;16.10;69.30;;;;;;5110025;28;20497;-74
2022/05/17 03:47:46;;;;;;;;;;;16.10;69.40;;;;;;5111017;28;20332;-75
2022/05/17 03:50:12;;;;;;;;;;;16.10;69.40;;;;;;5111079;28;19983;-73
2022/05/17 03:52:38;;;;;;;;;;;16.10;69.30;;;;;;5110798;28;19911;-75
2022/05/17 03:55:04;;;;;;;;;;;16.10;69.70;;;;;;5092308;28;20263;-76
2022/05/17 03:57:30;;;;;;;;;;;16.10;69.60;;;;;;5110689;28;20477;-76
2022/05/17 03:59:56;;;;;;;;;;;16.10;69.40;;;;;;5093001;28;19925;-74
2022/05/17 04:02:22;;;;;;;;;;;16.10;69.30;;;;;;5110030;28;19911;-73
2022/05/17 04:04:50;;;;;;;;;;;16.10;69.80;;;;;;5110170;28;19919;-76
2022/05/17 04:07:16;;;;;;;;;;;16.10;69.80;;;;;;5110390;28;19991;-76
2022/05/17 04:09:42;;;;;;;;;;;16.10;69.80;;;;;;5093154;28;19915;-73
2022/05/17 04:12:07;;;;;;;;;;;16.10;69.90;;;;;;5114205;28;19920;-73
2022/05/17 04:14:33;;;;;;;;;;;16.10;70.00;;;;;;5096689;28;20041;-75
2022/05/17 04:16:58;;;;;;;;;;;16.10;70.10;;;;;;5114253;28;19954;-76
2022/05/17 04:19:24;;;;;;;;;;;16.10;70.10;;;;;;5115054;28;19915;-74
2022/05/17 04:21:50;;;;;;;;;;;16.10;70.60;;;;;;5095796;28;19929;-77
2022/05/17 04:24:15;;;;;;;;;;;16.10;70.50;;;;;;5114673;28;19915;-75
2022/05/17 04:26:41;;;;;;;;;;;16.20;70.50;;;;;;5095712;28;20011;-75
2022/05/17 04:29:08;;;;;;;;;;;16.20;70.60;;;;;;5096546;28;19937;-74
2022/05/17 04:31:33;;;;;;;;;;;16.20;70.60;;;;;;5113755;28;19916;-74
2022/05/17 04:34:00;;;;;;;;;;;16.20;70.60;;;;;;5095196;28;20357;-75
2022/05/17 04:36:25;;;;;;;;;;;16.20;70.40;;;;;;5113688;28;19975;-74
2022/05/17 04:38:51;;;;;;;;;;;16.20;70.40;;;;;;5094595;28;19950;-76
2022/05/17 04:41:16;;;;;;;;;;;16.20;70.40;;;;;;5112762;28;19919;-73
2022/05/17 04:43:42;;;;;;;;;;;16.20;70.40;;;;;;5113188;28;19992;-74
2022/05/17 04:46:09;;;;;;;;;;;16.20;70.30;;;;;;5112588;28;19979;-75
2022/05/17 04:48:34;;;;;;;;;;;16.30;70.30;;;;;;5094506;28;20146;-75
2022/05/17 04:51:04;;;;;;;;;;;16.30;70.30;;;;;;5113619;28;20377;-75
2022/05/17 04:53:30;;;;;;;;;;;16.30;70.20;;;;;;5111721;28;19912;-74
2022/05/17 04:55:56;;;;;;;;;;;16.40;70.30;;;;;;5112817;28;20061;-74
2022/05/17 04:58:22;;;;;;;;;;;16.40;71.00;;;;;;5112944;28;19915;-74
2022/05/17 05:00:48;;;;;;;;;;;16.40;70.40;;;;;;5112553;28;19912;-75
2022/05/17 05:03:14;;;;;;;;;;;16.40;70.70;;;;;;5111954;28;19916;-76
2022/05/17 05:05:39;;;;;;;;;;;16.40;70.60;;;;;;5112058;28;19998;-74
2022/05/17 05:08:05;;;;;;;;;;;16.40;70.50;;;;;;5111573;28;20002;-75
2022/05/17 05:10:31;;;;;;;;;;;16.40;70.90;;;;;;5094021;28;19931;-75
2022/05/17 05:12:56;;;;;;;;;;;16.40;71.00;;;;;;5111585;28;19916;-74
2022/05/17 05:15:23;;;;;;;;;;;16.30;70.90;;;;;;5111590;28;20006;-77
2022/05/17 05:17:48;;;;;;;;;;;16.30;70.80;;;;;;5111268;28;19911;-75
2022/05/17 05:20:15;;;;;;;;;;;16.30;70.90;;;;;;5093416;28;19916;-74
2022/05/17 05:22:41;;;;;;;;;;;16.30;70.80;;;;;;5092311;28;20061;-76
2022/05/17 05:25:07;;;;;;;;;;;16.40;71.30;;;;;;5094503;28;19908;-76
2022/05/17 05:27:33;;;;;;;;;;;16.40;71.10;;;;;;5112954;28;19912;-72
2022/05/17 05:30:00;;;;;;;;;;;16.40;71.30;;;;;;5094818;28;19912;-76
2022/05/17 05:32:25;;;;;;;;;;;16.40;71.10;;;;;;5112935;28;20419;-74
2022/05/17 05:34:51;;;;;;;;;;;16.40;71.70;;;;;;5113286;28;19912;-74
2022/05/17 05:37:16;;;;;;;;;;;16.30;71.70;;;;;;5113419;28;20381;-76
2022/05/17 05:39:42;;;;;;;;;;;16.30;72.20;;;;;;5111320;28;20018;-75
2022/05/17 05:42:08;;;;;;;;;;;16.30;71.80;;;;;;5112483;28;19907;-77
2022/05/17 05:44:34;;;;;;;;;;;16.20;71.60;;;;;;5112495;28;19912;-75
2022/05/17 05:46:59;;;;;;;;;;;16.20;71.80;;;;;;5110825;28;19958;-73
2022/05/17 05:49:25;;;;;;;;;;;16.20;71.70;;;;;;5111746;28;19962;-75
2022/05/17 05:51:51;;;;;;;;;;;16.10;72.40;;;;;;5112352;28;20362;-75
2022/05/17 05:54:17;;;;;;;;;;;16.10;72.20;;;;;;5092329;28;19933;-76
2022/05/17 05:56:42;;;;;;;;;;;16.10;72.20;;;;;;5111065;28;19918;-74
2022/05/17 05:59:08;;;;;;;;;;;16.20;72.20;;;;;;5111507;28;20245;-75
2022/05/17 06:01:34;;;;;;;;;;;16.20;72.70;;;;;;5111399;28;19912;-74
2022/05/17 06:03:59;;;;;;;;;;;16.20;72.20;;;;;;5110914;28;19912;-75
2022/05/17 06:06:25;;;;;;;;;;;16.30;72.20;;;;;;5111189;28;19912;-74
2022/05/17 06:08:51;;;;;;;;;;;16.30;72.10;;;;;;5093228;28;19956;-76
2022/05/17 06:11:17;;;;;;;;;;;16.40;72.10;;;;;;5112276;28;19912;-74
2022/05/17 06:13:42;;;;;;;;;;;16.40;72.10;;;;;;5092370;28;19916;-76
2022/05/17 06:16:08;;;;;;;;;;;16.40;72.20;;;;;;5110663;28;19923;-74
2022/05/17 06:18:34;;;;;;;;;;;16.50;72.30;;;;;;5110562;28;19948;-75
2022/05/17 06:21:01;;;;;;;;;;;16.60;72.40;;;;;;5111567;28;19912;-74
2022/05/17 06:23:26;;;;;;;;;;;16.60;72.20;;;;;;5091984;28;20356;-75
2022/05/17 06:25:52;;;;;;;;;;;16.60;72.30;;;;;;5110811;28;19953;-73
2022/05/17 06:28:18;;;;;;;;;;;16.70;72.10;;;;;;5109822;28;19912;-77
2022/05/17 06:30:43;;;;;;;;;;;16.70;72.40;;;;;;5109611;28;20262;-77
2022/05/17 06:33:10;;;;;;;;;;;16.80;72.40;;;;;;5091335;28;20027;-75
2022/05/17 06:35:36;;;;;;;;;;;16.80;72.10;;;;;;5109500;28;19912;-77
2022/05/17 06:38:02;;;;;;;;;;;16.80;72.20;;;;;;5109502;28;20015;-74
2022/05/17 06:40:27;;;;;;;;;;;16.80;72.10;;;;;;5074372;28;19916;-74
2022/05/17 06:42:53;;;;;;;;;;;16.90;72.50;;;;;;5091362;28;20227;-76
2022/05/17 06:45:18;;;;;;;;;;;16.90;72.30;;;;;;5091040;28;20303;-75
2022/05/17 06:47:44;;;;;;;;;;;16.90;72.40;;;;;;5091999;28;19924;-76
2022/05/17 06:50:10;;;;;;;;;;;17.00;72.50;;;;;;5109356;28;20013;-77
2022/05/17 06:52:36;;;;;;;;;;;17.00;72.40;;;;;;5090615;28;19999;-76
2022/05/17 06:55:02;;;;;;;;;;;17.00;72.80;;;;;;5109432;28;19939;-73
2022/05/17 06:57:27;;;;;;;;;;;17.10;72.50;;;;;;5092008;28;19917;-76
2022/05/17 06:59:53;;;;;;;;;;;17.10;72.50;;;;;;5109799;28;19935;-74
2022/05/17 07:02:18;;;;;;;;;;;17.00;72.50;;;;;;5110342;28;19957;-76
2022/05/17 07:04:44;;;;;;;;;;;17.10;72.90;;;;;;5110527;28;19911;-75
2022/05/17 07:07:10;;;;;;;;;;;17.10;73.00;;;;;;5110955;28;19941;-75
2022/05/17 07:09:36;;;;;;;;;;;17.10;73.00;;;;;;5110636;28;20386;-76
2022/05/17 07:14:46;;;;;;;;;;;17.30;73.30;;;;;;5110587;28;19930;-73
2022/05/17 07:17:15;;;;;;;;;;;17.30;73.20;;;;;;5110126;28;19912;-77
2022/05/17 07:19:41;;;;;;;;;;;17.40;73.20;;;;;;5110339;28;19915;-75
2022/05/17 07:22:07;;;;;;;;;;;17.50;73.30;;;;;;5092033;28;19916;-75
2022/05/17 07:24:32;;;;;;;;;;;17.60;73.40;;;;;;5092489;28;19919;-74
2022/05/17 07:26:59;;;;;;;;;;;17.80;73.10;;;;;;5092640;28;20392;-75
2022/05/17 07:29:24;;;;;;;;;;;17.90;73.30;;;;;;5092246;28;19908;-74
2022/05/17 07:31:50;;;;;;;;;;;17.90;73.40;;;;;;5109558;28;19982;-76
2022/05/17 07:34:16;;;;;;;;;;;17.90;73.50;;;;;;5092385;28;20391;-78
2022/05/17 07:36:42;;;;;;;;;;;17.90;73.60;;;;;;5110131;28;19915;-74
2022/05/17 07:39:08;;;;;;;;;;;17.90;73.70;;;;;;5109417;28;19907;-76
2022/05/17 07:41:34;;;;;;;;;;;17.90;73.80;;;;;;5110596;28;19951;-75
2022/05/17 07:44:01;;;;;;;;;;;17.90;74.10;;;;;;5109486;28;19907;-75
2022/05/17 07:46:27;;;;;;;;;;;17.90;74.30;;;;;;5090168;28;19969;-73
2022/05/17 07:48:52;;;;;;;;;;;17.90;74.30;;;;;;5110687;28;19911;-73
2022/05/17 07:51:18;;;;;;;;;;;18.00;74.30;;;;;;5108833;28;19911;-76
2022/05/17 07:53:43;;;;;;;;;;;18.00;74.10;;;;;;5108646;28;19944;-73
2022/05/17 07:56:09;;;;;;;;;;;18.00;74.10;;;;;;5091102;28;19912;-75
2022/05/17 07:58:35;;;;;;;;;;;18.00;74.00;;;;;;5108554;28;19915;-75
2022/05/17 08:01:02;;;;;;;;;;;18.10;74.10;;;;;;5090288;28;19919;-76
2022/05/17 08:03:28;;;;;;;;;;;18.10;74.00;;;;;;5108999;28;20062;-77
2022/05/17 08:05:54;;;;;;;;;;;18.00;73.90;;;;;;5090726;28;20449;-75
2022/05/17 08:08:19;;;;;;;;;;;18.00;74.00;;;;;;5109357;28;19908;-76
2022/05/17 08:10:45;;;;;;;;;;;18.00;74.10;;;;;;5107718;28;19912;-75
2022/05/17 08:13:10;;;;;;;;;;;18.00;74.10;;;;;;5091437;28;20278;-73
2022/05/17 08:15:36;;;;;;;;;;;18.10;74.00;;;;;;5090917;28;19951;-74
2022/05/17 08:18:02;;;;;;;;;;;18.20;74.00;;;;;;5090547;28;19963;-76
2022/05/17 08:20:28;;;;;;;;;;;18.20;73.90;;;;;;5108810;28;19914;-74
2022/05/17 08:22:54;;;;;;;;;;;18.30;73.70;;;;;;5110492;28;20608;-75
2022/05/17 08:28:04;;;;;;;;;;;18.20;73.50;;;;;;5103916;28;19961;-77
2022/05/17 08:30:31;;;;;;;;;;;18.10;73.70;;;;;;5101137;28;20292;-79
2022/05/17 08:33:16;;;;;;;;;;;18.20;73.70;;;;;;5081907;28;19916;-78
2022/05/17 08:35:52;;;;;;;;;;;18.20;73.70;;;;;;5097826;28;20006;-78
2022/05/17 08:38:29;;;;;;;;;;;18.40;73.70;;;;;;5098018;28;19953;-77
2022/05/17 08:40:59;;;;;;;;;;;18.60;73.60;;;;;;5081878;28;19916;-76
2022/05/17 08:43:28;;;;;;;;;;;18.70;73.40;;;;;;5099514;28;20243;-77
2022/05/17 08:46:09;;;;;;;;;;;18.80;73.30;;;;;;5083327;28;19920;-80
2022/05/17 08:48:43;;;;;;;;;;;18.90;73.10;;;;;;5098235;28;19930;-75
2022/05/17 08:51:11;;;;;;;;;;;18.90;72.90;;;;;;5098473;28;19919;-75
2022/05/17 08:53:37;;;;;;;;;;;18.90;73.10;;;;;;5098453;28;19955;-77
2022/05/17 08:56:03;;;;;;;;;;;18.90;73.10;;;;;;5070889;28;20343;-74
2022/05/17 08:58:30;;;;;;;;;;;18.90;73.00;;;;;;5101946;28;19943;-74
2022/05/17 09:01:06;;;;;;;;;;;19.00;72.90;;;;;;5101068;28;20045;-75
2022/05/17 09:03:50;;;;;;;;;;;19.00;72.90;;;;;;5104515;28;20319;-76
2022/05/17 09:06:19;;;;;;;;;;;19.10;73.00;;;;;;5104559;28;20353;-74
2022/05/17 09:09:03;;;;;;;;;;;19.40;73.10;;;;;;5103018;28;19915;-73
2022/05/17 09:11:41;;;;;;;;;;;19.60;73.50;;;;;;5090596;28;20258;-73
2022/05/17 09:14:20;;;;;;;;;;;19.70;72.30;;;;;;5092806;28;20316;-75
2022/05/17 09:16:47;;;;;;;;;;;19.80;72.10;;;;;;5092197;28;19999;-76
2022/05/17 09:19:16;;;;;;;;;;;19.80;71.80;;;;;;5092402;28;19962;-78
2022/05/17 09:21:43;;;;;;;;;;;19.80;71.80;;;;;;5075163;28;20263;-76
2022/05/17 09:24:12;;;;;;;;;;;19.90;72.00;;;;;;5096627;28;19965;-77
2022/05/17 09:26:39;;;;;;;;;;;20.00;71.80;;;;;;5104284;28;19912;-75
2022/05/17 09:29:16;;;;;;;;;;;20.20;71.60;;;;;;5105410;28;19970;-76
2022/05/17 09:31:48;;;;;;;;;;;20.40;71.90;;;;;;5084099;28;19983;-75
2022/05/17 09:34:19;;;;;;;;;;;20.60;71.40;;;;;;5102289;28;19965;-75
2022/05/17 09:36:51;;;;;;;;;;;20.90;70.90;;;;;;5103428;28;19923;-73
2022/05/17 09:39:30;;;;;;;;;;;21.00;70.60;;;;;;5100559;28;19916;-73
2022/05/17 09:41:59;;;;;;;;;;;21.20;70.30;;;;;;5083545;28;20005;-75
2022/05/17 09:44:26;;;;;;;;;;;21.20;69.50;;;;;;5108113;28;19931;-73
2022/05/17 09:46:56;;;;;;;;;;;21.20;69.60;;;;;;5104604;28;19923;-73
2022/05/17 09:52:42;;;;;;;;;;;21.40;69.10;;;;;;5100797;28;19977;-74
2022/05/17 09:55:13;;;;;;;;;;;21.40;69.10;;;;;;5098313;28;20338;-74
2022/05/17 09:57:50;;;;;;;;;;;21.50;68.90;;;;;;5102679;28;20031;-73
2022/05/17 10:00:21;;;;;;;;;;;21.60;69.00;;;;;;5080526;28;19957;-75
2022/05/17 10:02:49;;;;;;;;;;;21.80;68.90;;;;;;5086217;28;19964;-74
2022/05/17 10:05:17;;;;;;;;;;;22.00;68.30;;;;;;5099531;28;19927;-73
2022/05/17 10:07:49;;;;;;;;;;;22.00;67.90;;;;;;5102264;28;19918;-74
2022/05/17 10:10:26;;;;;;;;;;;21.90;67.60;;;;;;5101918;28;19912;-75
2022/05/17 10:12:56;;;;;;;;;;;21.90;66.70;;;;;;5099295;28;19912;-74
2022/05/17 10:15:22;;;;;;;;;;;21.80;67.10;;;;;;5101243;28;20002;-74
2022/05/17 10:17:51;;;;;;;;;;;21.80;67.20;;;;;;5097289;28;19962;-76
2022/05/17 10:20:23;;;;;;;;;;;21.80;67.40;;;;;;5106778;28;19911;-75
2022/05/17 10:22:52;;;;;;;;;;;21.90;67.30;;;;;;5110013;28;19953;-75
2022/05/17 10:25:23;;;;;;;;;;;21.70;67.30;;;;;;5110341;28;19918;-74
2022/05/17 10:27:54;;;;;;;;;;;21.70;67.30;;;;;;5090950;28;19908;-75
2022/05/17 10:30:25;;;;;;;;;;;21.90;67.20;;;;;;5109727;28;19970;-75
2022/05/17 10:33:00;;;;;;;;;;;22.10;67.00;;;;;;5091319;28;19923;-75
2022/05/17 10:35:32;;;;;;;;;;;22.30;66.80;;;;;;5110310;28;19918;-75
2022/05/17 10:38:02;;;;;;;;;;;22.40;66.50;;;;;;5091323;28;19959;-79
2022/05/17 10:40:30;;;;;;;;;;;22.30;66.40;;;;;;5110387;28;19950;-76
2022/05/17 10:42:57;;;;;;;;;;;22.10;66.20;;;;;;5110371;28;19908;-77
2022/05/17 10:45:33;;;;;;;;;;;21.90;66.50;;;;;;5109734;28;19919;-69
2022/05/17 10:48:18;;;;;;;;;;;21.70;66.30;;;;;;5108952;28;19920;-74
2022/05/17 10:50:48;;;;;;;;;;;21.50;66.20;;;;;;5110063;28;20097;-71
2022/05/17 10:53:29;;;;;;;;;;;21.30;65.60;;;;;;5091143;28;20300;-72
2022/05/17 10:56:01;;;;;;;;;;;21.30;66.00;;;;;;5109348;28;19953;-76
2022/05/17 10:58:45;;;;;;;;;;;21.20;66.10;;;;;;5090784;28;20002;-74
2022/05/17 11:01:21;;;;;;;;;;;21.20;66.40;;;;;;5109648;28;19908;-73
2022/05/17 11:04:03;;;;;;;;;;;21.20;66.70;;;;;;5106293;28;20354;-76
2022/05/17 11:06:32;;;;;;;;;;;21.40;66.40;;;;;;5099115;28;20305;-72
2022/05/17 11:09:07;;;;;;;;;;;21.50;66.10;;;;;;5097772;28;19912;-74
2022/05/17 11:11:43;;;;;;;;;;;21.60;66.10;;;;;;5098129;28;19930;-74
2022/05/17 11:14:12;;;;;;;;;;;21.60;66.10;;;;;;5081539;28;19919;-75
2022/05/17 11:16:43;;;;;;;;;;;21.70;66.10;;;;;;5084126;28;19914;-76
2022/05/17 11:19:15;;;;;;;;;;;21.70;66.20;;;;;;5099598;28;19908;-71
2022/05/17 11:21:54;;;;;;;;;;;21.70;66.00;;;;;;5088738;28;19916;-76
2022/05/17 11:24:20;;;;;;;;;;;21.70;66.20;;;;;;5088557;28;19948;-74
2022/05/17 11:26:52;;;;;;;;;;;21.70;66.30;;;;;;5070035;28;19950;-74
2022/05/17 11:29:46;;;;;;;;;;;21.70;66.30;;;;;;5070323;28;19908;-73
2022/05/17 11:32:15;;;;;;;;;;;21.70;65.90;;;;;;5052857;28;20423;-74
2022/05/17 11:34:44;;;;;;;;;;;21.70;66.00;;;;;;5088635;28;19908;-74
2022/05/17 11:37:30;;;;;;;;;;;21.50;65.80;;;;;;5070591;28;19909;-73
2022/05/17 11:39:56;;;;;;;;;;;21.40;65.80;;;;;;5074528;28;19908;-73
2022/05/17 11:42:26;;;;;;;;;;;21.30;65.90;;;;;;5089001;28;20473;-77
2022/05/17 11:44:52;;;;;;;;;;;21.30;66.10;;;;;;5089269;28;19908;-74
2022/05/17 11:47:46;;;;;;;;;;;21.40;66.30;;;;;;5070445;28;19972;-72
2022/05/17 11:50:14;;;;;;;;;;;21.40;65.80;;;;;;5089150;28;19912;-73
2022/05/17 11:52:40;;;;;;;;;;;21.40;65.80;;;;;;5088541;28;19912;-72
2022/05/17 11:55:07;;;;;;;;;;;21.40;65.60;;;;;;5088473;28;19965;-75
2022/05/17 11:57:33;;;;;;;;;;;21.40;65.40;;;;;;5088230;28;19912;-74
2022/05/17 12:00:04;;;;;;;;;;;21.40;65.50;;;;;;5088445;28;20254;-72
2022/05/17 12:02:42;;;;;;;;;;;21.40;65.40;;;;;;5088057;28;20260;-72
2022/05/17 12:05:31;;;;;;;;;;;21.40;65.00;;;;;;5088329;28;19943;-74
2022/05/17 12:08:15;;;;;;;;;;;21.40;65.20;;;;;;5087938;28;19999;-75
2022/05/17 12:10:40;;;;;;;;;;;21.50;65.10;;;;;;5088658;28;20355;-74
2022/05/17 12:13:07;;;;;;;;;;;21.40;64.90;;;;;;5088630;28;19922;-75
2022/05/17 12:15:52;;;;;;;;;;;21.30;65.00;;;;;;5088360;28;19983;-74
2022/05/17 12:18:21;;;;;;;;;;;21.30;65.10;;;;;;5091376;28;20407;-72
2022/05/17 12:20:56;;;;;;;;;;;21.30;65.30;;;;;;5096914;28;19915;-75
2022/05/17 12:23:31;;;;;;;;;;;21.20;65.40;;;;;;5097637;28;19988;-73
2022/05/17 12:26:02;;;;;;;;;;;21.10;65.50;;;;;;5099031;28;20041;-74
2022/05/17 12:28:33;;;;;;;;;;;21.10;65.60;;;;;;5099791;28;19935;-73
2022/05/17 12:31:02;;;;;;;;;;;21.10;65.60;;;;;;5082203;28;19912;-76
2022/05/17 12:33:32;;;;;;;;;;;21.10;65.70;;;;;;5103328;28;19965;-73
2022/05/17 12:36:17;;;;;;;;;;;21.00;65.80;;;;;;5109234;28;19912;-72
2022/05/17 12:44:21;;;;;;;;;;;20.70;66.20;;;;;;5113032;28;20042;-72
2022/05/17 12:46:49;;;;;;;;;;;20.60;66.20;;;;;;5112195;28;19923;-71
2022/05/17 12:49:16;;;;;;;;;;;20.50;66.00;;;;;;5093922;28;19935;-75
2022/05/17 12:51:44;;;;;;;;;;;20.30;66.10;;;;;;5112135;28;19913;-74
2022/05/17 12:54:10;;;;;;;;;;;20.10;66.00;;;;;;5094134;28;19907;-74
2022/05/17 12:56:37;;;;;;;;;;;19.90;66.40;;;;;;5112471;28;20414;-75
2022/05/17 12:59:05;;;;;;;;;;;19.70;66.60;;;;;;5112296;28;19930;-72
2022/05/17 13:01:33;;;;;;;;;;;19.70;66.80;;;;;;5111768;28;19911;-73
2022/05/17 13:04:04;;;;;;;;;;;19.50;66.80;;;;;;5112305;28;19912;-74
2022/05/17 13:06:41;;;;;;;;;;;19.50;67.40;;;;;;5093883;28;19934;-56
2022/05/17 13:09:14;;;;;;;;;;;19.30;66.80;;;;;;5112868;28;19919;-73
2022/05/17 13:11:39;;;;;;;;;;;18.90;67.00;;;;;;5113630;28;20396;-75
2022/05/17 13:14:07;;;;;;;;;;;18.40;67.30;;;;;;5113137;28;19916;-74
2022/05/17 13:16:34;;;;;;;;;;;18.00;68.10;;;;;;5094406;28;19928;-73
2022/05/17 13:19:01;;;;;;;;;;;17.70;68.80;;;;;;5112881;28;19908;-74
2022/05/17 13:21:35;;;;;;;;;;;17.30;68.80;;;;;;5112638;28;19908;-73
2022/05/17 13:24:02;;;;;;;;;;;17.10;69.20;;;;;;5090796;28;19919;-75
2022/05/17 13:26:30;;;;;;;;;;;16.90;69.30;;;;;;5103484;28;20270;-75
2022/05/17 13:28:56;;;;;;;;;;;16.80;69.50;;;;;;5085481;28;19908;-77
2022/05/17 13:31:23;;;;;;;;;;;16.70;69.50;;;;;;5105047;28;19924;-74
2022/05/17 13:33:58;;;;;;;;;;;16.60;69.90;;;;;;5095761;28;19923;-79
2022/05/17 13:36:29;;;;;;;;;;;16.60;70.10;;;;;;5101891;28;19950;-61
2022/05/17 13:38:55;;;;;;;;;;;16.50;70.00;;;;;;5103061;28;20342;-80
2022/05/17 13:41:32;;;;;;;;;;;16.40;70.10;;;;;;5103299;28;19961;-79
2022/05/17 13:43:59;;;;;;;;;;;16.40;70.40;;;;;;5100042;28;19953;-76
2022/05/17 13:46:28;;;;;;;;;;;16.40;70.30;;;;;;5103278;28;19964;-76
2022/05/17 13:48:55;;;;;;;;;;;16.40;70.10;;;;;;5100704;28;19911;-76
2022/05/17 13:51:29;;;;;;;;;;;16.40;70.20;;;;;;5096906;28;19916;-78
2022/05/17 13:53:59;;;;;;;;;;;16.50;70.20;;;;;;5094653;28;20273;-76
2022/05/17 13:56:28;;;;;;;;;;;16.50;70.00;;;;;;5104756;28;19908;-76
2022/05/17 13:58:54;;;;;;;;;;;16.60;70.20;;;;;;5099888;28;19916;-76
2022/05/17 14:01:39;;;;;;;;;;;16.70;70.60;;;;;;5092821;28;20005;-74
2022/05/17 14:04:11;;;;;;;;;;;16.70;71.00;;;;;;5090080;28;20045;-75
2022/05/17 14:06:56;;;;;;;;;;;16.60;71.00;;;;;;5072918;28;19939;-79
2022/05/17 14:12:10;;;;;;;;;;;16.50;72.00;;;;;;5090190;28;19918;-72
2022/05/17 14:14:35;;;;;;;;;;;16.30;72.40;;;;;;5071762;28;19930;-76
2022/05/17 14:17:02;;;;;;;;;;;16.30;72.20;;;;;;5091681;28;19912;-72
2022/05/17 14:19:30;;;;;;;;;;;16.30;72.40;;;;;;5073114;28;20423;-76
2022/05/17 14:22:00;;;;;;;;;;;16.30;72.40;;;;;;5090919;28;19970;-74
2022/05/17 14:24:26;;;;;;;;;;;16.30;72.20;;;;;;5090404;28;20384;-73
2022/05/17 14:26:56;;;;;;;;;;;16.20;72.50;;;;;;5090832;28;19908;-74
2022/05/17 14:29:22;;;;;;;;;;;16.20;72.30;;;;;;5091291;28;20197;-73
2022/05/17 14:31:48;;;;;;;;;;;16.10;72.50;;;;;;5092753;28;19919;-75
2022/05/17 14:34:16;;;;;;;;;;;16.00;72.40;;;;;;5090751;28;19912;-73
2022/05/17 14:36:42;;;;;;;;;;;15.90;72.40;;;;;;5072536;28;19953;-78
2022/05/17 14:39:07;;;;;;;;;;;15.80;72.20;;;;;;5072781;28;19908;-74
2022/05/17 14:41:35;;;;;;;;;;;15.80;72.80;;;;;;5071986;28;19933;-73